sensor_id;sensor_type;location;lat;lon;timestamp;P1;durP1;ratioP1;P2;durP2;ratioP2
11548;SDS011;61444;59.472;18.306;2024-03-02T00:02:04;31.23;;;15.63;;
11548;SDS011;61444;59.472;18.306;2024-03-02T00:04:12;36.10;;;14.23;;
11548;SDS011;61444;59.472;18.306;2024-03-02T00:06:21;34.30;;;14.47;;
11548;SDS011;61444;59.472;18.306;2024-03-02T00:08:30;38.03;;;14.60;;
11548;SDS011;61444;59.472;18.306;2024-03-02T00:10:38;32.63;;;14.93;;
11548;SDS011;61444;59.472;18.306;2024-03-02T00:12:47;34.90;;;15.77;;
11548;SDS011;61444;59.472;18.306;2024-03-02T00:14:55;38.50;;;15.50;;
11548;SDS011;61444;59.472;18.306;2024-03-02T00:17:05;34.20;;;15.30;;
11548;SDS011;61444;59.472;18.306;2024-03-02T00:19:17;33.43;;;14.43;;
11548;SDS011;61444;59.472;18.306;2024-03-02T00:21:26;35.33;;;15.17;;
11548;SDS011;61444;59.472;18.306;2024-03-02T00:23:36;32.00;;;15.40;;
11548;SDS011;61444;59.472;18.306;2024-03-02T00:25:46;36.13;;;14.30;;
11548;SDS011;61444;59.472;18.306;2024-03-02T00:27:55;36.47;;;15.87;;
11548;SDS011;61444;59.472;18.306;2024-03-02T00:30:05;41.10;;;16.17;;
11548;SDS011;61444;59.472;18.306;2024-03-02T00:32:16;39.00;;;15.77;;
11548;SDS011;61444;59.472;18.306;2024-03-02T00:34:24;36.07;;;15.57;;
11548;SDS011;61444;59.472;18.306;2024-03-02T00:36:33;30.87;;;15.33;;
11548;SDS011;61444;59.472;18.306;2024-03-02T00:38:46;33.33;;;15.33;;
11548;SDS011;61444;59.472;18.306;2024-03-02T00:40:58;39.60;;;16.27;;
11548;SDS011;61444;59.472;18.306;2024-03-02T00:43:11;37.60;;;15.53;;
11548;SDS011;61444;59.472;18.306;2024-03-02T00:45:23;35.50;;;15.03;;
11548;SDS011;61444;59.472;18.306;2024-03-02T00:47:34;45.10;;;16.70;;
11548;SDS011;61444;59.472;18.306;2024-03-02T00:49:46;34.60;;;16.07;;
11548;SDS011;61444;59.472;18.306;2024-03-02T00:51:55;30.50;;;15.77;;
11548;SDS011;61444;59.472;18.306;2024-03-02T00:54:05;38.07;;;16.43;;
11548;SDS011;61444;59.472;18.306;2024-03-02T00:56:14;32.17;;;15.83;;
11548;SDS011;61444;59.472;18.306;2024-03-02T00:58:21;36.47;;;16.13;;
11548;SDS011;61444;59.472;18.306;2024-03-02T01:00:31;40.87;;;17.37;;
11548;SDS011;61444;59.472;18.306;2024-03-02T01:02:41;40.97;;;16.30;;
11548;SDS011;61444;59.472;18.306;2024-03-02T01:04:52;39.63;;;16.40;;
11548;SDS011;61444;59.472;18.306;2024-03-02T01:07:00;40.77;;;17.53;;
11548;SDS011;61444;59.472;18.306;2024-03-02T01:09:09;44.07;;;18.50;;
11548;SDS011;61444;59.472;18.306;2024-03-02T01:11:19;36.40;;;16.73;;
11548;SDS011;61444;59.472;18.306;2024-03-02T01:13:29;35.80;;;17.30;;
11548;SDS011;61444;59.472;18.306;2024-03-02T01:15:38;41.90;;;16.73;;
11548;SDS011;61444;59.472;18.306;2024-03-02T01:17:47;34.23;;;15.23;;
11548;SDS011;61444;59.472;18.306;2024-03-02T01:19:59;39.00;;;17.00;;
11548;SDS011;61444;59.472;18.306;2024-03-02T01:22:06;40.67;;;17.40;;
11548;SDS011;61444;59.472;18.306;2024-03-02T01:24:15;41.67;;;18.20;;
11548;SDS011;61444;59.472;18.306;2024-03-02T01:26:27;38.40;;;17.80;;
11548;SDS011;61444;59.472;18.306;2024-03-02T01:28:35;38.93;;;17.83;;
11548;SDS011;61444;59.472;18.306;2024-03-02T01:30:45;45.47;;;17.37;;
11548;SDS011;61444;59.472;18.306;2024-03-02T01:32:55;45.47;;;18.20;;
11548;SDS011;61444;59.472;18.306;2024-03-02T01:35:05;43.03;;;18.47;;
11548;SDS011;61444;59.472;18.306;2024-03-02T01:37:13;39.40;;;17.80;;
11548;SDS011;61444;59.472;18.306;2024-03-02T01:39:22;39.00;;;16.57;;
11548;SDS011;61444;59.472;18.306;2024-03-02T01:41:31;42.70;;;18.10;;
11548;SDS011;61444;59.472;18.306;2024-03-02T01:43:39;43.73;;;17.60;;
11548;SDS011;61444;59.472;18.306;2024-03-02T01:45:48;37.50;;;17.43;;
11548;SDS011;61444;59.472;18.306;2024-03-02T01:48:01;44.27;;;18.87;;
11548;SDS011;61444;59.472;18.306;2024-03-02T01:50:13;42.20;;;18.00;;
11548;SDS011;61444;59.472;18.306;2024-03-02T01:52:22;45.67;;;17.93;;
11548;SDS011;61444;59.472;18.306;2024-03-02T01:54:29;36.07;;;17.80;;
11548;SDS011;61444;59.472;18.306;2024-03-02T01:56:38;41.50;;;19.33;;
11548;SDS011;61444;59.472;18.306;2024-03-02T01:58:45;35.33;;;16.97;;
11548;SDS011;61444;59.472;18.306;2024-03-02T02:00:54;34.23;;;17.90;;
11548;SDS011;61444;59.472;18.306;2024-03-02T02:03:04;42.80;;;18.53;;
11548;SDS011;61444;59.472;18.306;2024-03-02T02:05:13;49.53;;;19.43;;
11548;SDS011;61444;59.472;18.306;2024-03-02T02:07:22;44.63;;;19.07;;
11548;SDS011;61444;59.472;18.306;2024-03-02T02:09:29;39.60;;;18.43;;
11548;SDS011;61444;59.472;18.306;2024-03-02T02:11:38;42.30;;;18.57;;
11548;SDS011;61444;59.472;18.306;2024-03-02T02:13:46;40.90;;;18.63;;
11548;SDS011;61444;59.472;18.306;2024-03-02T02:15:55;44.73;;;19.77;;
11548;SDS011;61444;59.472;18.306;2024-03-02T02:18:05;43.27;;;19.40;;
11548;SDS011;61444;59.472;18.306;2024-03-02T02:20:14;48.33;;;18.37;;
11548;SDS011;61444;59.472;18.306;2024-03-02T02:22:24;51.33;;;20.37;;
11548;SDS011;61444;59.472;18.306;2024-03-02T02:24:32;41.87;;;18.63;;
11548;SDS011;61444;59.472;18.306;2024-03-02T02:26:41;47.30;;;18.50;;
11548;SDS011;61444;59.472;18.306;2024-03-02T02:28:50;40.17;;;18.97;;
11548;SDS011;61444;59.472;18.306;2024-03-02T02:30:58;45.13;;;19.13;;
11548;SDS011;61444;59.472;18.306;2024-03-02T02:33:07;44.77;;;19.60;;
11548;SDS011;61444;59.472;18.306;2024-03-02T02:35:17;42.33;;;19.20;;
11548;SDS011;61444;59.472;18.306;2024-03-02T02:37:26;47.90;;;20.30;;
11548;SDS011;61444;59.472;18.306;2024-03-02T02:39:35;48.63;;;20.07;;
11548;SDS011;61444;59.472;18.306;2024-03-02T02:41:43;48.23;;;19.90;;
11548;SDS011;61444;59.472;18.306;2024-03-02T02:43:51;45.60;;;19.77;;
11548;SDS011;61444;59.472;18.306;2024-03-02T02:45:59;43.20;;;18.37;;
11548;SDS011;61444;59.472;18.306;2024-03-02T02:48:08;43.37;;;19.13;;
11548;SDS011;61444;59.472;18.306;2024-03-02T02:50:15;47.63;;;19.63;;
11548;SDS011;61444;59.472;18.306;2024-03-02T02:52:24;44.57;;;19.03;;
11548;SDS011;61444;59.472;18.306;2024-03-02T02:54:33;42.83;;;19.40;;
11548;SDS011;61444;59.472;18.306;2024-03-02T02:56:44;48.50;;;19.77;;
11548;SDS011;61444;59.472;18.306;2024-03-02T02:58:53;45.20;;;18.97;;
11548;SDS011;61444;59.472;18.306;2024-03-02T03:01:02;48.30;;;19.87;;
11548;SDS011;61444;59.472;18.306;2024-03-02T03:03:10;41.90;;;19.80;;
11548;SDS011;61444;59.472;18.306;2024-03-02T03:05:20;49.90;;;21.20;;
11548;SDS011;61444;59.472;18.306;2024-03-02T03:07:29;47.77;;;20.40;;
11548;SDS011;61444;59.472;18.306;2024-03-02T03:09:38;49.27;;;20.37;;
11548;SDS011;61444;59.472;18.306;2024-03-02T03:11:47;45.50;;;20.47;;
11548;SDS011;61444;59.472;18.306;2024-03-02T03:13:55;44.70;;;19.73;;
11548;SDS011;61444;59.472;18.306;2024-03-02T03:16:04;47.57;;;20.13;;
11548;SDS011;61444;59.472;18.306;2024-03-02T03:18:12;47.93;;;20.73;;
11548;SDS011;61444;59.472;18.306;2024-03-02T03:20:21;46.90;;;19.90;;
11548;SDS011;61444;59.472;18.306;2024-03-02T03:22:31;48.87;;;20.83;;
11548;SDS011;61444;59.472;18.306;2024-03-02T03:24:43;44.43;;;20.43;;
11548;SDS011;61444;59.472;18.306;2024-03-02T03:26:54;44.63;;;21.53;;
11548;SDS011;61444;59.472;18.306;2024-03-02T03:29:03;47.27;;;21.07;;
11548;SDS011;61444;59.472;18.306;2024-03-02T03:31:11;45.57;;;20.77;;
11548;SDS011;61444;59.472;18.306;2024-03-02T03:33:20;48.03;;;20.57;;
11548;SDS011;61444;59.472;18.306;2024-03-02T03:35:32;50.83;;;20.67;;
11548;SDS011;61444;59.472;18.306;2024-03-02T03:37:41;48.13;;;20.53;;
11548;SDS011;61444;59.472;18.306;2024-03-02T03:39:50;43.50;;;20.50;;
11548;SDS011;61444;59.472;18.306;2024-03-02T03:41:58;49.20;;;20.20;;
11548;SDS011;61444;59.472;18.306;2024-03-02T03:44:06;43.43;;;20.10;;
11548;SDS011;61444;59.472;18.306;2024-03-02T03:46:14;39.83;;;18.77;;
11548;SDS011;61444;59.472;18.306;2024-03-02T03:48:23;43.13;;;20.10;;
11548;SDS011;61444;59.472;18.306;2024-03-02T03:50:37;47.23;;;21.20;;
11548;SDS011;61444;59.472;18.306;2024-03-02T03:52:46;50.97;;;21.33;;
11548;SDS011;61444;59.472;18.306;2024-03-02T03:54:56;47.87;;;21.13;;
11548;SDS011;61444;59.472;18.306;2024-03-02T03:57:05;41.47;;;19.80;;
11548;SDS011;61444;59.472;18.306;2024-03-02T03:59:13;44.67;;;20.07;;
11548;SDS011;61444;59.472;18.306;2024-03-02T04:01:22;51.07;;;21.03;;
11548;SDS011;61444;59.472;18.306;2024-03-02T04:03:29;45.63;;;19.83;;
11548;SDS011;61444;59.472;18.306;2024-03-02T04:05:38;45.83;;;19.17;;
11548;SDS011;61444;59.472;18.306;2024-03-02T04:07:47;51.57;;;21.57;;
11548;SDS011;61444;59.472;18.306;2024-03-02T04:09:57;51.00;;;20.93;;
11548;SDS011;61444;59.472;18.306;2024-03-02T04:12:09;50.77;;;21.17;;
11548;SDS011;61444;59.472;18.306;2024-03-02T04:14:19;47.83;;;20.67;;
11548;SDS011;61444;59.472;18.306;2024-03-02T04:16:28;46.47;;;20.07;;
11548;SDS011;61444;59.472;18.306;2024-03-02T04:18:36;46.97;;;20.50;;
11548;SDS011;61444;59.472;18.306;2024-03-02T04:20:44;52.67;;;21.10;;
11548;SDS011;61444;59.472;18.306;2024-03-02T04:22:56;47.37;;;21.23;;
11548;SDS011;61444;59.472;18.306;2024-03-02T04:25:06;54.93;;;20.47;;
11548;SDS011;61444;59.472;18.306;2024-03-02T04:27:15;49.90;;;20.20;;
11548;SDS011;61444;59.472;18.306;2024-03-02T04:29:27;49.53;;;20.83;;
11548;SDS011;61444;59.472;18.306;2024-03-02T04:31:35;51.27;;;21.53;;
11548;SDS011;61444;59.472;18.306;2024-03-02T04:33:43;48.50;;;21.40;;
11548;SDS011;61444;59.472;18.306;2024-03-02T04:35:52;49.77;;;20.47;;
11548;SDS011;61444;59.472;18.306;2024-03-02T04:38:00;44.83;;;18.47;;
11548;SDS011;61444;59.472;18.306;2024-03-02T04:40:10;44.37;;;19.93;;
11548;SDS011;61444;59.472;18.306;2024-03-02T04:42:19;49.00;;;20.13;;
11548;SDS011;61444;59.472;18.306;2024-03-02T04:44:29;46.43;;;19.37;;
11548;SDS011;61444;59.472;18.306;2024-03-02T04:46:37;44.30;;;20.67;;
11548;SDS011;61444;59.472;18.306;2024-03-02T04:48:46;47.20;;;20.57;;
11548;SDS011;61444;59.472;18.306;2024-03-02T04:51:01;47.73;;;20.30;;
11548;SDS011;61444;59.472;18.306;2024-03-02T04:53:10;51.87;;;21.97;;
11548;SDS011;61444;59.472;18.306;2024-03-02T04:55:19;41.57;;;19.77;;
11548;SDS011;61444;59.472;18.306;2024-03-02T04:57:53;46.73;;;19.67;;
11548;SDS011;61444;59.472;18.306;2024-03-02T05:00:03;41.27;;;19.73;;
11548;SDS011;61444;59.472;18.306;2024-03-02T05:02:14;41.63;;;19.10;;
11548;SDS011;61444;59.472;18.306;2024-03-02T05:04:22;44.23;;;19.90;;
11548;SDS011;61444;59.472;18.306;2024-03-02T05:06:31;47.53;;;20.40;;
11548;SDS011;61444;59.472;18.306;2024-03-02T05:08:38;48.77;;;19.20;;
11548;SDS011;61444;59.472;18.306;2024-03-02T05:10:48;50.77;;;20.47;;
11548;SDS011;61444;59.472;18.306;2024-03-02T05:12:57;50.83;;;20.03;;
11548;SDS011;61444;59.472;18.306;2024-03-02T05:15:06;48.20;;;19.43;;
11548;SDS011;61444;59.472;18.306;2024-03-02T05:17:16;46.97;;;20.10;;
11548;SDS011;61444;59.472;18.306;2024-03-02T05:19:24;46.47;;;19.97;;
11548;SDS011;61444;59.472;18.306;2024-03-02T05:21:33;49.03;;;20.33;;
11548;SDS011;61444;59.472;18.306;2024-03-02T05:23:42;46.00;;;20.37;;
11548;SDS011;61444;59.472;18.306;2024-03-02T05:25:51;47.13;;;20.77;;
11548;SDS011;61444;59.472;18.306;2024-03-02T05:28:00;46.67;;;19.83;;
11548;SDS011;61444;59.472;18.306;2024-03-02T05:30:08;45.47;;;19.63;;
11548;SDS011;61444;59.472;18.306;2024-03-02T05:32:17;44.00;;;19.33;;
11548;SDS011;61444;59.472;18.306;2024-03-02T05:34:25;42.57;;;20.10;;
11548;SDS011;61444;59.472;18.306;2024-03-02T05:36:35;41.93;;;18.00;;
11548;SDS011;61444;59.472;18.306;2024-03-02T05:38:45;40.77;;;18.17;;
11548;SDS011;61444;59.472;18.306;2024-03-02T05:40:55;46.40;;;18.63;;
11548;SDS011;61444;59.472;18.306;2024-03-02T05:43:03;38.53;;;19.50;;
11548;SDS011;61444;59.472;18.306;2024-03-02T05:45:12;43.43;;;18.73;;
11548;SDS011;61444;59.472;18.306;2024-03-02T05:47:23;43.77;;;18.70;;
11548;SDS011;61444;59.472;18.306;2024-03-02T05:49:32;52.03;;;19.07;;
11548;SDS011;61444;59.472;18.306;2024-03-02T05:51:41;39.80;;;18.40;;
11548;SDS011;61444;59.472;18.306;2024-03-02T05:53:49;44.13;;;18.97;;
11548;SDS011;61444;59.472;18.306;2024-03-02T05:56:00;39.53;;;18.53;;
11548;SDS011;61444;59.472;18.306;2024-03-02T05:58:11;42.07;;;17.83;;
11548;SDS011;61444;59.472;18.306;2024-03-02T06:00:32;44.20;;;18.73;;
11548;SDS011;61444;59.472;18.306;2024-03-02T06:02:41;37.77;;;17.67;;
11548;SDS011;61444;59.472;18.306;2024-03-02T06:04:49;39.87;;;17.00;;
11548;SDS011;61444;59.472;18.306;2024-03-02T06:06:58;38.10;;;16.70;;
11548;SDS011;61444;59.472;18.306;2024-03-02T06:09:07;44.17;;;18.03;;
11548;SDS011;61444;59.472;18.306;2024-03-02T06:11:20;38.20;;;16.50;;
11548;SDS011;61444;59.472;18.306;2024-03-02T06:13:27;44.23;;;18.43;;
11548;SDS011;61444;59.472;18.306;2024-03-02T06:15:36;38.73;;;17.17;;
11548;SDS011;61444;59.472;18.306;2024-03-02T06:17:44;46.87;;;17.30;;
11548;SDS011;61444;59.472;18.306;2024-03-02T06:19:53;41.70;;;17.10;;
11548;SDS011;61444;59.472;18.306;2024-03-02T06:22:01;37.93;;;16.03;;
11548;SDS011;61444;59.472;18.306;2024-03-02T06:24:10;34.40;;;15.70;;
11548;SDS011;61444;59.472;18.306;2024-03-02T06:26:21;39.10;;;16.33;;
11548;SDS011;61444;59.472;18.306;2024-03-02T06:28:31;36.43;;;17.10;;
11548;SDS011;61444;59.472;18.306;2024-03-02T06:30:40;34.57;;;14.80;;
11548;SDS011;61444;59.472;18.306;2024-03-02T06:32:49;38.73;;;17.00;;
11548;SDS011;61444;59.472;18.306;2024-03-02T06:34:59;36.47;;;16.17;;
11548;SDS011;61444;59.472;18.306;2024-03-02T06:37:08;37.90;;;17.60;;
11548;SDS011;61444;59.472;18.306;2024-03-02T06:39:17;42.80;;;16.93;;
11548;SDS011;61444;59.472;18.306;2024-03-02T06:41:27;34.03;;;16.00;;
11548;SDS011;61444;59.472;18.306;2024-03-02T06:43:36;35.33;;;14.10;;
11548;SDS011;61444;59.472;18.306;2024-03-02T06:45:45;38.90;;;16.40;;
11548;SDS011;61444;59.472;18.306;2024-03-02T06:47:54;39.87;;;15.90;;
11548;SDS011;61444;59.472;18.306;2024-03-02T06:50:03;39.50;;;17.33;;
11548;SDS011;61444;59.472;18.306;2024-03-02T06:52:13;35.03;;;15.57;;
11548;SDS011;61444;59.472;18.306;2024-03-02T06:54:22;36.83;;;16.83;;
11548;SDS011;61444;59.472;18.306;2024-03-02T06:56:32;34.07;;;14.50;;
11548;SDS011;61444;59.472;18.306;2024-03-02T06:58:40;36.83;;;18.27;;
11548;SDS011;61444;59.472;18.306;2024-03-02T07:00:49;33.50;;;16.03;;
11548;SDS011;61444;59.472;18.306;2024-03-02T07:02:59;34.30;;;15.77;;
11548;SDS011;61444;59.472;18.306;2024-03-02T07:05:10;39.73;;;16.07;;
11548;SDS011;61444;59.472;18.306;2024-03-02T07:07:19;32.83;;;15.40;;
11548;SDS011;61444;59.472;18.306;2024-03-02T07:09:28;34.13;;;14.50;;
11548;SDS011;61444;59.472;18.306;2024-03-02T07:11:40;29.77;;;15.30;;
11548;SDS011;61444;59.472;18.306;2024-03-02T07:13:49;35.90;;;16.40;;
11548;SDS011;61444;59.472;18.306;2024-03-02T07:16:00;28.57;;;15.10;;
11548;SDS011;61444;59.472;18.306;2024-03-02T07:18:34;35.57;;;15.27;;
11548;SDS011;61444;59.472;18.306;2024-03-02T07:20:47;34.43;;;14.53;;
11548;SDS011;61444;59.472;18.306;2024-03-02T07:22:56;31.73;;;14.73;;
11548;SDS011;61444;59.472;18.306;2024-03-02T07:25:05;31.50;;;14.93;;
11548;SDS011;61444;59.472;18.306;2024-03-02T07:27:36;27.30;;;13.33;;
11548;SDS011;61444;59.472;18.306;2024-03-02T07:29:45;29.43;;;15.00;;
11548;SDS011;61444;59.472;18.306;2024-03-02T07:31:53;30.77;;;15.37;;
11548;SDS011;61444;59.472;18.306;2024-03-02T07:34:02;32.30;;;14.87;;
11548;SDS011;61444;59.472;18.306;2024-03-02T07:36:11;29.90;;;14.73;;
11548;SDS011;61444;59.472;18.306;2024-03-02T07:38:19;30.83;;;14.37;;
11548;SDS011;61444;59.472;18.306;2024-03-02T07:40:28;29.30;;;14.47;;
11548;SDS011;61444;59.472;18.306;2024-03-02T07:42:38;24.37;;;13.03;;
11548;SDS011;61444;59.472;18.306;2024-03-02T07:44:46;26.57;;;13.70;;
11548;SDS011;61444;59.472;18.306;2024-03-02T07:46:55;31.90;;;13.47;;
11548;SDS011;61444;59.472;18.306;2024-03-02T07:49:04;30.03;;;14.03;;
11548;SDS011;61444;59.472;18.306;2024-03-02T07:51:12;27.53;;;14.13;;
11548;SDS011;61444;59.472;18.306;2024-03-02T07:53:21;27.13;;;14.30;;
11548;SDS011;61444;59.472;18.306;2024-03-02T07:55:30;22.00;;;12.67;;
11548;SDS011;61444;59.472;18.306;2024-03-02T07:57:40;29.47;;;14.03;;
11548;SDS011;61444;59.472;18.306;2024-03-02T07:59:49;26.30;;;13.73;;
11548;SDS011;61444;59.472;18.306;2024-03-02T08:01:58;23.53;;;12.07;;
11548;SDS011;61444;59.472;18.306;2024-03-02T08:04:07;27.77;;;13.50;;
11548;SDS011;61444;59.472;18.306;2024-03-02T08:06:15;24.00;;;11.90;;
11548;SDS011;61444;59.472;18.306;2024-03-02T08:08:27;23.43;;;12.20;;
11548;SDS011;61444;59.472;18.306;2024-03-02T08:10:35;21.77;;;11.97;;
11548;SDS011;61444;59.472;18.306;2024-03-02T08:12:45;22.93;;;12.73;;
11548;SDS011;61444;59.472;18.306;2024-03-02T08:14:54;27.97;;;13.20;;
11548;SDS011;61444;59.472;18.306;2024-03-02T08:17:02;20.97;;;11.27;;
11548;SDS011;61444;59.472;18.306;2024-03-02T08:19:16;23.97;;;12.63;;
11548;SDS011;61444;59.472;18.306;2024-03-02T08:21:24;25.77;;;14.17;;
11548;SDS011;61444;59.472;18.306;2024-03-02T08:23:37;23.20;;;10.87;;
11548;SDS011;61444;59.472;18.306;2024-03-02T08:25:51;21.90;;;12.13;;
11548;SDS011;61444;59.472;18.306;2024-03-02T08:28:01;19.77;;;11.30;;
11548;SDS011;61444;59.472;18.306;2024-03-02T08:30:11;20.90;;;11.13;;
11548;SDS011;61444;59.472;18.306;2024-03-02T08:32:20;17.03;;;11.57;;
11548;SDS011;61444;59.472;18.306;2024-03-02T08:34:32;19.87;;;11.53;;
11548;SDS011;61444;59.472;18.306;2024-03-02T08:36:41;26.13;;;12.43;;
11548;SDS011;61444;59.472;18.306;2024-03-02T08:38:50;20.17;;;11.03;;
11548;SDS011;61444;59.472;18.306;2024-03-02T08:40:59;27.43;;;11.20;;
11548;SDS011;61444;59.472;18.306;2024-03-02T08:43:09;20.67;;;11.73;;
11548;SDS011;61444;59.472;18.306;2024-03-02T08:45:17;24.57;;;11.47;;
11548;SDS011;61444;59.472;18.306;2024-03-02T08:47:26;20.33;;;11.77;;
11548;SDS011;61444;59.472;18.306;2024-03-02T08:49:35;18.07;;;11.00;;
11548;SDS011;61444;59.472;18.306;2024-03-02T08:51:44;22.10;;;11.50;;
11548;SDS011;61444;59.472;18.306;2024-03-02T08:54:01;18.90;;;10.73;;
11548;SDS011;61444;59.472;18.306;2024-03-02T08:56:10;22.40;;;11.33;;
11548;SDS011;61444;59.472;18.306;2024-03-02T08:58:20;21.67;;;11.53;;
11548;SDS011;61444;59.472;18.306;2024-03-02T09:00:29;21.10;;;11.80;;
11548;SDS011;61444;59.472;18.306;2024-03-02T09:02:38;22.67;;;11.90;;
11548;SDS011;61444;59.472;18.306;2024-03-02T09:04:46;19.90;;;11.33;;
11548;SDS011;61444;59.472;18.306;2024-03-02T09:06:55;20.43;;;11.13;;
11548;SDS011;61444;59.472;18.306;2024-03-02T09:09:04;21.57;;;11.90;;
11548;SDS011;61444;59.472;18.306;2024-03-02T09:11:13;16.77;;;10.67;;
11548;SDS011;61444;59.472;18.306;2024-03-02T09:13:24;17.33;;;11.13;;
11548;SDS011;61444;59.472;18.306;2024-03-02T09:15:31;19.93;;;10.73;;
11548;SDS011;61444;59.472;18.306;2024-03-02T09:17:44;16.07;;;11.03;;
11548;SDS011;61444;59.472;18.306;2024-03-02T09:19:52;19.30;;;10.67;;
11548;SDS011;61444;59.472;18.306;2024-03-02T09:22:03;19.10;;;11.87;;
11548;SDS011;61444;59.472;18.306;2024-03-02T09:24:12;19.97;;;10.90;;
11548;SDS011;61444;59.472;18.306;2024-03-02T09:26:23;25.73;;;11.50;;
11548;SDS011;61444;59.472;18.306;2024-03-02T09:28:33;18.40;;;10.80;;
11548;SDS011;61444;59.472;18.306;2024-03-02T09:30:42;18.30;;;10.87;;
11548;SDS011;61444;59.472;18.306;2024-03-02T09:32:50;18.90;;;10.93;;
11548;SDS011;61444;59.472;18.306;2024-03-02T09:35:19;20.27;;;11.27;;
11548;SDS011;61444;59.472;18.306;2024-03-02T09:37:27;16.77;;;10.47;;
11548;SDS011;61444;59.472;18.306;2024-03-02T09:39:37;19.10;;;11.10;;
11548;SDS011;61444;59.472;18.306;2024-03-02T09:41:45;22.07;;;11.37;;
11548;SDS011;61444;59.472;18.306;2024-03-02T09:43:56;17.70;;;10.63;;
11548;SDS011;61444;59.472;18.306;2024-03-02T09:46:05;16.50;;;10.67;;
11548;SDS011;61444;59.472;18.306;2024-03-02T09:48:14;19.37;;;11.53;;
11548;SDS011;61444;59.472;18.306;2024-03-02T09:50:25;16.83;;;11.00;;
11548;SDS011;61444;59.472;18.306;2024-03-02T09:52:33;16.47;;;10.73;;
11548;SDS011;61444;59.472;18.306;2024-03-02T09:54:42;19.00;;;10.67;;
11548;SDS011;61444;59.472;18.306;2024-03-02T09:56:50;18.70;;;10.97;;
11548;SDS011;61444;59.472;18.306;2024-03-02T09:59:00;20.00;;;10.20;;
11548;SDS011;61444;59.472;18.306;2024-03-02T10:01:12;18.23;;;11.00;;
11548;SDS011;61444;59.472;18.306;2024-03-02T10:03:21;17.20;;;9.77;;
11548;SDS011;61444;59.472;18.306;2024-03-02T10:05:31;17.93;;;10.73;;
11548;SDS011;61444;59.472;18.306;2024-03-02T10:07:40;17.67;;;10.73;;
11548;SDS011;61444;59.472;18.306;2024-03-02T10:09:51;17.90;;;10.50;;
11548;SDS011;61444;59.472;18.306;2024-03-02T10:12:03;18.00;;;9.93;;
11548;SDS011;61444;59.472;18.306;2024-03-02T10:14:13;19.27;;;10.53;;
11548;SDS011;61444;59.472;18.306;2024-03-02T10:16:22;15.83;;;9.47;;
11548;SDS011;61444;59.472;18.306;2024-03-02T10:18:30;18.43;;;10.07;;
11548;SDS011;61444;59.472;18.306;2024-03-02T10:20:39;14.73;;;9.67;;
11548;SDS011;61444;59.472;18.306;2024-03-02T10:22:47;14.90;;;8.90;;
11548;SDS011;61444;59.472;18.306;2024-03-02T10:24:56;15.47;;;9.83;;
11548;SDS011;61444;59.472;18.306;2024-03-02T10:27:08;16.17;;;10.43;;
11548;SDS011;61444;59.472;18.306;2024-03-02T10:29:17;16.83;;;10.90;;
11548;SDS011;61444;59.472;18.306;2024-03-02T10:31:27;16.40;;;10.20;;
11548;SDS011;61444;59.472;18.306;2024-03-02T10:33:36;17.53;;;9.30;;
11548;SDS011;61444;59.472;18.306;2024-03-02T10:35:45;14.87;;;9.00;;
11548;SDS011;61444;59.472;18.306;2024-03-02T10:37:56;14.37;;;9.87;;
11548;SDS011;61444;59.472;18.306;2024-03-02T10:40:06;15.87;;;9.97;;
11548;SDS011;61444;59.472;18.306;2024-03-02T10:42:15;13.60;;;9.93;;
11548;SDS011;61444;59.472;18.306;2024-03-02T10:44:25;15.43;;;9.53;;
11548;SDS011;61444;59.472;18.306;2024-03-02T10:46:35;15.93;;;9.43;;
11548;SDS011;61444;59.472;18.306;2024-03-02T10:48:44;16.73;;;9.47;;
11548;SDS011;61444;59.472;18.306;2024-03-02T10:50:55;16.80;;;9.80;;
11548;SDS011;61444;59.472;18.306;2024-03-02T10:53:08;16.23;;;9.97;;
11548;SDS011;61444;59.472;18.306;2024-03-02T10:55:17;15.43;;;10.10;;
11548;SDS011;61444;59.472;18.306;2024-03-02T10:57:26;16.30;;;9.33;;
11548;SDS011;61444;59.472;18.306;2024-03-02T10:59:36;16.97;;;9.70;;
11548;SDS011;61444;59.472;18.306;2024-03-02T11:01:47;18.20;;;9.80;;
11548;SDS011;61444;59.472;18.306;2024-03-02T11:03:58;14.87;;;9.40;;
11548;SDS011;61444;59.472;18.306;2024-03-02T11:06:08;12.27;;;8.60;;
11548;SDS011;61444;59.472;18.306;2024-03-02T11:08:17;15.03;;;9.57;;
11548;SDS011;61444;59.472;18.306;2024-03-02T11:10:28;14.80;;;8.57;;
11548;SDS011;61444;59.472;18.306;2024-03-02T11:12:43;16.33;;;9.67;;
11548;SDS011;61444;59.472;18.306;2024-03-02T11:14:58;14.20;;;9.70;;
11548;SDS011;61444;59.472;18.306;2024-03-02T11:17:06;14.30;;;8.77;;
11548;SDS011;61444;59.472;18.306;2024-03-02T11:19:15;16.73;;;9.27;;
11548;SDS011;61444;59.472;18.306;2024-03-02T11:21:24;19.20;;;10.03;;
11548;SDS011;61444;59.472;18.306;2024-03-02T11:23:34;15.60;;;10.07;;
11548;SDS011;61444;59.472;18.306;2024-03-02T11:25:43;15.07;;;9.93;;
11548;SDS011;61444;59.472;18.306;2024-03-02T11:28:00;16.33;;;9.60;;
11548;SDS011;61444;59.472;18.306;2024-03-02T11:30:11;16.03;;;9.17;;
11548;SDS011;61444;59.472;18.306;2024-03-02T11:32:41;15.53;;;8.80;;
11548;SDS011;61444;59.472;18.306;2024-03-02T11:34:49;15.03;;;8.57;;
11548;SDS011;61444;59.472;18.306;2024-03-02T11:36:58;17.20;;;9.60;;
11548;SDS011;61444;59.472;18.306;2024-03-02T11:39:06;16.40;;;9.03;;
11548;SDS011;61444;59.472;18.306;2024-03-02T11:41:15;13.90;;;8.57;;
11548;SDS011;61444;59.472;18.306;2024-03-02T11:43:25;15.30;;;9.40;;
11548;SDS011;61444;59.472;18.306;2024-03-02T11:45:36;15.93;;;8.47;;
11548;SDS011;61444;59.472;18.306;2024-03-02T11:47:49;20.17;;;9.63;;
11548;SDS011;61444;59.472;18.306;2024-03-02T11:49:58;16.10;;;9.60;;
11548;SDS011;61444;59.472;18.306;2024-03-02T11:52:08;14.20;;;8.77;;
11548;SDS011;61444;59.472;18.306;2024-03-02T11:54:15;12.47;;;8.57;;
11548;SDS011;61444;59.472;18.306;2024-03-02T11:56:25;15.53;;;9.07;;
11548;SDS011;61444;59.472;18.306;2024-03-02T11:58:34;16.07;;;9.17;;
11548;SDS011;61444;59.472;18.306;2024-03-02T12:00:46;16.03;;;9.33;;
11548;SDS011;61444;59.472;18.306;2024-03-02T12:02:59;14.50;;;8.93;;
11548;SDS011;61444;59.472;18.306;2024-03-02T12:05:08;17.50;;;9.33;;
11548;SDS011;61444;59.472;18.306;2024-03-02T12:07:18;14.33;;;8.53;;
11548;SDS011;61444;59.472;18.306;2024-03-02T12:09:28;14.97;;;9.33;;
11548;SDS011;61444;59.472;18.306;2024-03-02T12:11:37;16.67;;;9.03;;
11548;SDS011;61444;59.472;18.306;2024-03-02T12:13:51;17.17;;;8.83;;
11548;SDS011;61444;59.472;18.306;2024-03-02T12:16:04;17.17;;;8.60;;
11548;SDS011;61444;59.472;18.306;2024-03-02T12:18:13;14.17;;;8.43;;
11548;SDS011;61444;59.472;18.306;2024-03-02T12:20:22;15.60;;;8.73;;
11548;SDS011;61444;59.472;18.306;2024-03-02T12:22:30;12.70;;;8.33;;
11548;SDS011;61444;59.472;18.306;2024-03-02T12:24:39;9.50;;;6.93;;
11548;SDS011;61444;59.472;18.306;2024-03-02T12:26:54;15.30;;;8.17;;
11548;SDS011;61444;59.472;18.306;2024-03-02T12:29:03;13.63;;;8.63;;
11548;SDS011;61444;59.472;18.306;2024-03-02T12:31:13;16.13;;;8.77;;